Weather at Cluj-Napoca International Airport

Public forecast

Using degrees Celsius for public forecast. Weather courtesy of forecast.io.

Current aviation weather report (METAR) for Cluj-Napoca International Airport

Report is more than 6 hours old.

2022/11/14 15:30 (retrieved 2 years ago)

LRCL 141530Z 00000KT 0500 R25/1100D FG VV002 03/03 Q1025

Closest aviation forecast (TAF) to Cluj-Napoca International Airport

Forecast is more than 12 hours old.

Closest forecast is Sibiu International Airport, 62.3 nm (115.4 km) SSE.

2023/02/22 18:31 (retrieved 1 year ago)

TAF LRSB 221700Z 2218/2318 30006KT 9999 SCT045 PROB30 TEMPO 2219/2223 5000 -RA BR TEMPO 2300/2306 3000 BR BECMG 2310/2312 13010KT